PWSweather.com
Personal Weather Stations
Station Observations

YeovilGB

Lat: 50.949, Lon: -2.627

Elevation: 70

Station Type: Vantage Pro

http://www.yeovil-weather.me.uk/

High Low Average
Temperature 76.6°F24.8°C 61.1°F16.2°C 69.2°F20.7°C
Dew Point 64.6°F18.1°C 48.8°F9.3°C 58.2°F14.6°C
Winds 8.1 mph 13.0 kmh Calm Calm 2.0 mph WSW3.2 kmh WSW
Wind Gusts 11.5 mph18.5 kmh -- 4.0 mph6.4 kmh
Humidity 89% 53% 69%
Pressure 29.93 in1013.5 mb 29.89 in1012.2 mb -
Precipitation 0.00 in0.0 mm - -
Hour Temp Dew Point Humidity Winds Wind Gusts Pressure Precip Precip Rate Daily Precip Total
12:00 AM 67.7°F19.8°C 49.9°F9.9°C 53% 2.3 mph NE3.7 kmh NE 3.5 mph5.6 kmh 29.92 in1013.2 mb - 0.00 in0.0 mm 0.00 in0.0 mm
12:10 AM 67.7°F19.8°C 50.5°F10.3°C 54% 2.3 mph NE3.7 kmh NE 4.6 mph7.4 kmh 29.92 in1013.2 mb - 0.00 in0.0 mm 0.00 in0.0 mm
12:20 AM 67.5°F19.7°C 49.8°F9.9°C 53% 2.3 mph NE3.7 kmh NE 8.1 mph13.0 kmh 29.92 in1013.2 mb - 0.00 in0.0 mm 0.00 in0.0 mm
12:30 AM 67.4°F19.7°C 49.7°F9.8°C 53% 1.2 mph ENE1.9 kmh ENE 6.9 mph11.1 kmh 29.93 in1013.5 mb - 0.00 in0.0 mm 0.00 in0.0 mm
12:40 AM 67.2°F19.6°C 49.5°F9.7°C 53% 1.2 mph NE1.9 kmh NE 6.9 mph11.1 kmh 29.92 in1013.2 mb - 0.00 in0.0 mm 0.00 in0.0 mm
12:50 AM 66.9°F19.4°C 49.2°F9.6°C 53% Calm Calm 2.3 mph3.7 kmh 29.92 in1013.2 mb - 0.00 in0.0 mm 0.00 in0.0 mm
01:00 AM 66.5°F19.2°C 48.8°F9.3°C 53% Calm Calm 2.3 mph3.7 kmh 29.91 in1012.9 mb - 0.00 in0.0 mm 0.00 in0.0 mm
01:10 AM 66.1°F18.9°C 49.0°F9.4°C 54% Calm Calm 1.2 mph1.9 kmh 29.91 in1012.9 mb - 0.00 in0.0 mm 0.00 in0.0 mm
01:20 AM 65.8°F18.8°C 49.2°F9.6°C 55% 1.2 mph NE1.9 kmh NE -- 29.91 in1012.9 mb - 0.00 in0.0 mm 0.00 in0.0 mm
01:30 AM 65.6°F18.7°C 49.9°F9.9°C 57% Calm Calm 1.2 mph1.9 kmh 29.91 in1012.9 mb - 0.00 in0.0 mm 0.00 in0.0 mm
01:40 AM 65.3°F18.5°C 50.1°F10.1°C 58% 3.5 mph NNE5.6 kmh NNE 5.8 mph9.3 kmh 29.91 in1012.9 mb - 0.00 in0.0 mm 0.00 in0.0 mm
01:50 AM 65.1°F18.4°C 50.0°F10.0°C 58% Calm Calm 1.2 mph1.9 kmh 29.90 in1012.5 mb - 0.00 in0.0 mm 0.00 in0.0 mm
02:00 AM 64.9°F18.3°C 50.2°F10.1°C 59% 3.5 mph NE5.6 kmh NE 5.8 mph9.3 kmh 29.91 in1012.9 mb - 0.00 in0.0 mm 0.00 in0.0 mm
02:10 AM 64.8°F18.2°C 50.1°F10.1°C 59% 2.3 mph NNE3.7 kmh NNE 5.8 mph9.3 kmh 29.90 in1012.5 mb - 0.00 in0.0 mm 0.00 in0.0 mm
02:20 AM 64.7°F18.2°C 50.5°F10.3°C 60% 1.2 mph NNE1.9 kmh NNE 4.6 mph7.4 kmh 29.90 in1012.5 mb - 0.00 in0.0 mm 0.00 in0.0 mm
02:30 AM 64.7°F18.2°C 50.5°F10.3°C 60% Calm Calm 1.2 mph1.9 kmh 29.90 in1012.5 mb - 0.00 in0.0 mm 0.00 in0.0 mm
02:40 AM 64.5°F18.1°C 50.3°F10.2°C 60% 1.2 mph NE1.9 kmh NE 5.8 mph9.3 kmh 29.90 in1012.5 mb - 0.00 in0.0 mm 0.00 in0.0 mm
02:50 AM 64.4°F18.0°C 50.2°F10.1°C 60% Calm Calm 1.2 mph1.9 kmh 29.90 in1012.5 mb - 0.00 in0.0 mm 0.00 in0.0 mm
03:00 AM 64.2°F17.9°C 50.0°F10.0°C 60% 1.2 mph NE1.9 kmh NE 3.5 mph5.6 kmh 29.90 in1012.5 mb - 0.00 in0.0 mm 0.00 in0.0 mm
03:10 AM 64.2°F17.9°C 50.0°F10.0°C 60% Calm Calm -- 29.90 in1012.5 mb - 0.00 in0.0 mm 0.00 in0.0 mm
03:20 AM 64.0°F17.8°C 50.7°F10.4°C 62% Calm Calm -- 29.90 in1012.5 mb - 0.00 in0.0 mm 0.00 in0.0 mm
03:30 AM 63.5°F17.5°C 50.7°F10.4°C 63% Calm Calm -- 29.91 in1012.9 mb - 0.00 in0.0 mm 0.00 in0.0 mm
03:40 AM 63.0°F17.2°C 50.7°F10.4°C 64% Calm Calm -- 29.90 in1012.5 mb - 0.00 in0.0 mm 0.00 in0.0 mm
03:50 AM 62.6°F17.0°C 51.0°F10.6°C 66% Calm Calm -- 29.90 in1012.5 mb - 0.00 in0.0 mm 0.00 in0.0 mm
04:00 AM 62.2°F16.8°C 51.1°F10.6°C 67% Calm Calm -- 29.90 in1012.5 mb - 0.00 in0.0 mm 0.00 in0.0 mm
04:10 AM 62.0°F16.7°C 51.3°F10.7°C 68% Calm Calm -- 29.90 in1012.5 mb - 0.00 in0.0 mm 0.00 in0.0 mm
04:20 AM 61.6°F16.4°C 51.4°F10.8°C 69% Calm Calm -- 29.91 in1012.9 mb - 0.00 in0.0 mm 0.00 in0.0 mm
04:30 AM 61.4°F16.3°C 51.1°F10.6°C 69% Calm Calm -- 29.91 in1012.9 mb - 0.00 in0.0 mm 0.00 in0.0 mm
04:40 AM 61.2°F16.2°C 51.3°F10.7°C 70% 2.3 mph NW3.7 kmh NW 4.6 mph7.4 kmh 29.90 in1012.5 mb - 0.00 in0.0 mm 0.00 in0.0 mm
04:50 AM 61.1°F16.2°C 51.2°F10.7°C 70% 1.2 mph NNW1.9 kmh NNW 3.5 mph5.6 kmh 29.90 in1012.5 mb - 0.00 in0.0 mm 0.00 in0.0 mm
05:00 AM 61.1°F16.2°C 51.6°F10.9°C 71% 1.2 mph NNW1.9 kmh NNW 5.8 mph9.3 kmh 29.90 in1012.5 mb - 0.00 in0.0 mm 0.00 in0.0 mm
05:10 AM 61.2°F16.2°C 51.7°F10.9°C 71% 1.2 mph NNW1.9 kmh NNW 1.2 mph1.9 kmh 29.90 in1012.5 mb - 0.00 in0.0 mm 0.00 in0.0 mm
05:20 AM 61.3°F16.3°C 51.4°F10.8°C 70% 4.6 mph N7.4 kmh N 6.9 mph11.1 kmh 29.90 in1012.5 mb - 0.00 in0.0 mm 0.00 in0.0 mm
05:30 AM 61.3°F16.3°C 51.8°F11.0°C 71% 3.5 mph NNW5.6 kmh NNW 5.8 mph9.3 kmh 29.91 in1012.9 mb - 0.00 in0.0 mm 0.00 in0.0 mm
05:50 AM 61.6°F16.4°C 52.1°F11.2°C 71% 3.5 mph N5.6 kmh N 4.6 mph7.4 kmh 29.90 in1012.5 mb - 0.00 in0.0 mm 0.00 in0.0 mm
06:00 AM 62.1°F16.7°C 52.2°F11.2°C 70% 4.6 mph N7.4 kmh N 5.8 mph9.3 kmh 29.90 in1012.5 mb - 0.00 in0.0 mm 0.00 in0.0 mm
06:10 AM 62.7°F17.1°C 52.8°F11.6°C 70% 2.3 mph N3.7 kmh N 4.6 mph7.4 kmh 29.90 in1012.5 mb - 0.00 in0.0 mm 0.00 in0.0 mm
06:20 AM 63.4°F17.4°C 53.0°F11.7°C 69% 2.3 mph N3.7 kmh N 6.9 mph11.1 kmh 29.90 in1012.5 mb - 0.00 in0.0 mm 0.00 in0.0 mm
06:30 AM 63.7°F17.6°C 53.3°F11.8°C 69% 2.3 mph NNW3.7 kmh NNW 2.3 mph3.7 kmh 29.90 in1012.5 mb - 0.00 in0.0 mm 0.00 in0.0 mm
06:40 AM 63.9°F17.7°C 53.5°F11.9°C 69% 4.6 mph N7.4 kmh N 4.6 mph7.4 kmh 29.91 in1012.9 mb - 0.00 in0.0 mm 0.00 in0.0 mm
06:50 AM 64.0°F17.8°C 53.6°F12.0°C 69% 2.3 mph NNW3.7 kmh NNW 4.6 mph7.4 kmh 29.91 in1012.9 mb - 0.00 in0.0 mm 0.00 in0.0 mm
07:00 AM 64.6°F18.1°C 54.2°F12.3°C 69% 4.6 mph N7.4 kmh N 6.9 mph11.1 kmh 29.91 in1012.9 mb - 0.00 in0.0 mm 0.00 in0.0 mm
07:10 AM 65.4°F18.6°C 54.1°F12.3°C 67% 4.6 mph NNW7.4 kmh NNW 8.1 mph13.0 kmh 29.90 in1012.5 mb - 0.00 in0.0 mm 0.00 in0.0 mm
07:20 AM 66.1°F18.9°C 54.8°F12.7°C 67% 5.8 mph N9.3 kmh N 6.9 mph11.1 kmh 29.90 in1012.5 mb - 0.00 in0.0 mm 0.00 in0.0 mm
07:30 AM 67.3°F19.6°C 55.1°F12.8°C 65% 2.3 mph N3.7 kmh N 5.8 mph9.3 kmh 29.90 in1012.5 mb - 0.00 in0.0 mm 0.00 in0.0 mm
07:40 AM 68.8°F20.4°C 56.1°F13.4°C 64% 4.6 mph NE7.4 kmh NE 6.9 mph11.1 kmh 29.90 in1012.5 mb - 0.00 in0.0 mm 0.00 in0.0 mm
07:50 AM 69.2°F20.7°C 55.6°F13.1°C 62% 4.6 mph NNE7.4 kmh NNE 5.8 mph9.3 kmh 29.90 in1012.5 mb - 0.00 in0.0 mm 0.00 in0.0 mm
08:00 AM 69.3°F20.7°C 55.7°F13.2°C 62% 4.6 mph NNE7.4 kmh NNE 6.9 mph11.1 kmh 29.90 in1012.5 mb - 0.00 in0.0 mm 0.00 in0.0 mm
08:10 AM 69.4°F20.8°C 56.7°F13.7°C 64% 4.6 mph NNW7.4 kmh NNW 5.8 mph9.3 kmh 29.90 in1012.5 mb - 0.00 in0.0 mm 0.00 in0.0 mm
08:20 AM 69.9°F21.1°C 57.1°F13.9°C 64% 3.5 mph N5.6 kmh N 6.9 mph11.1 kmh 29.90 in1012.5 mb - 0.00 in0.0 mm 0.00 in0.0 mm
08:30 AM 70.4°F21.3°C 57.6°F14.2°C 64% 3.5 mph N5.6 kmh N 6.9 mph11.1 kmh 29.90 in1012.5 mb - 0.00 in0.0 mm 0.00 in0.0 mm
08:40 AM 71.1°F21.7°C 57.4°F14.1°C 62% 5.8 mph N9.3 kmh N 9.2 mph14.8 kmh 29.90 in1012.5 mb - 0.00 in0.0 mm 0.00 in0.0 mm
08:50 AM 71.3°F21.8°C 57.6°F14.2°C 62% 4.6 mph N7.4 kmh N 6.9 mph11.1 kmh 29.89 in1012.2 mb - 0.00 in0.0 mm 0.00 in0.0 mm
09:00 AM 71.4°F21.9°C 57.7°F14.3°C 62% 5.8 mph NNE9.3 kmh NNE 9.2 mph14.8 kmh 29.90 in1012.5 mb - 0.00 in0.0 mm 0.00 in0.0 mm
09:10 AM 71.9°F22.2°C 58.1°F14.5°C 62% 4.6 mph NE7.4 kmh NE 8.1 mph13.0 kmh 29.90 in1012.5 mb - 0.00 in0.0 mm 0.00 in0.0 mm
09:20 AM 72.5°F22.5°C 58.8°F14.9°C 62% 3.5 mph N5.6 kmh N 5.8 mph9.3 kmh 29.90 in1012.5 mb - 0.00 in0.0 mm 0.00 in0.0 mm
09:30 AM 73.0°F22.8°C 59.2°F15.1°C 62% 3.5 mph N5.6 kmh N 3.5 mph5.6 kmh 29.90 in1012.5 mb - 0.00 in0.0 mm 0.00 in0.0 mm
09:40 AM 73.7°F23.2°C 59.9°F15.5°C 62% 1.2 mph NW1.9 kmh NW 4.6 mph7.4 kmh 29.90 in1012.5 mb - 0.00 in0.0 mm 0.00 in0.0 mm
09:50 AM 74.6°F23.7°C 60.3°F15.7°C 61% Calm Calm 3.5 mph5.6 kmh 29.91 in1012.9 mb - 0.00 in0.0 mm 0.00 in0.0 mm
10:00 AM 76.1°F24.5°C 60.7°F15.9°C 59% Calm Calm -- 29.91 in1012.9 mb - 0.00 in0.0 mm 0.00 in0.0 mm
10:10 AM 76.6°F24.8°C 60.2°F15.7°C 57% 2.3 mph NNW3.7 kmh NNW 3.5 mph5.6 kmh 29.91 in1012.9 mb - 0.00 in0.0 mm 0.00 in0.0 mm
10:20 AM 76.4°F24.7°C 60.5°F15.8°C 58% 3.5 mph NW5.6 kmh NW 6.9 mph11.1 kmh 29.91 in1012.9 mb - 0.00 in0.0 mm 0.00 in0.0 mm
10:30 AM 76.3°F24.6°C 60.4°F15.8°C 58% 3.5 mph NW5.6 kmh NW 5.8 mph9.3 kmh 29.91 in1012.9 mb - 0.00 in0.0 mm 0.00 in0.0 mm
10:40 AM 76.6°F24.8°C 60.7°F15.9°C 58% 2.3 mph NW3.7 kmh NW 5.8 mph9.3 kmh 29.91 in1012.9 mb - 0.00 in0.0 mm 0.00 in0.0 mm
10:50 AM 76.6°F24.8°C 61.2°F16.2°C 59% 3.5 mph NNW5.6 kmh NNW 5.8 mph9.3 kmh 29.91 in1012.9 mb - 0.00 in0.0 mm 0.00 in0.0 mm
11:00 AM 76.2°F24.6°C 60.3°F15.7°C 58% 2.3 mph WSW3.7 kmh WSW 5.8 mph9.3 kmh 29.91 in1012.9 mb - 0.00 in0.0 mm 0.00 in0.0 mm
11:10 AM 75.3°F24.1°C 60.0°F15.6°C 59% 3.5 mph WSW5.6 kmh WSW 4.6 mph7.4 kmh 29.91 in1012.9 mb - 0.00 in0.0 mm 0.00 in0.0 mm
11:20 AM 74.5°F23.6°C 59.7°F15.4°C 60% 4.6 mph NW7.4 kmh NW 6.9 mph11.1 kmh 29.91 in1012.9 mb - 0.00 in0.0 mm 0.00 in0.0 mm
11:30 AM 73.6°F23.1°C 59.8°F15.4°C 62% 2.3 mph NW3.7 kmh NW 3.5 mph5.6 kmh 29.91 in1012.9 mb - 0.00 in0.0 mm 0.00 in0.0 mm
11:40 AM 73.0°F22.8°C 59.7°F15.4°C 63% 2.3 mph NW3.7 kmh NW 2.3 mph3.7 kmh 29.91 in1012.9 mb - 0.00 in0.0 mm 0.00 in0.0 mm
11:50 AM 72.5°F22.5°C 59.6°F15.3°C 64% 1.2 mph W1.9 kmh W 3.5 mph5.6 kmh 29.92 in1013.2 mb - 0.00 in0.0 mm 0.00 in0.0 mm
12:00 PM 72.7°F22.6°C 59.9°F15.5°C 64% 4.6 mph W7.4 kmh W 6.9 mph11.1 kmh 29.92 in1013.2 mb - 0.00 in0.0 mm 0.00 in0.0 mm
12:10 PM 73.2°F22.9°C 60.3°F15.7°C 64% 3.5 mph WSW5.6 kmh WSW 6.9 mph11.1 kmh 29.91 in1012.9 mb - 0.00 in0.0 mm 0.00 in0.0 mm
12:20 PM 73.5°F23.1°C 60.6°F15.9°C 64% 4.6 mph WNW7.4 kmh WNW 6.9 mph11.1 kmh 29.92 in1013.2 mb - 0.00 in0.0 mm 0.00 in0.0 mm
12:30 PM 73.3°F22.9°C 59.9°F15.5°C 63% 6.9 mph WSW11.1 kmh WSW 8.1 mph13.0 kmh 29.92 in1013.2 mb - 0.00 in0.0 mm 0.00 in0.0 mm
12:40 PM 73.1°F22.8°C 60.2°F15.7°C 64% 5.8 mph WSW9.3 kmh WSW 6.9 mph11.1 kmh 29.93 in1013.5 mb - 0.00 in0.0 mm 0.00 in0.0 mm
12:50 PM 73.0°F22.8°C 60.1°F15.6°C 64% 4.6 mph WSW7.4 kmh WSW 11.5 mph18.5 kmh 29.93 in1013.5 mb - 0.00 in0.0 mm 0.00 in0.0 mm
01:00 PM 72.7°F22.6°C 59.8°F15.4°C 64% 5.8 mph WSW9.3 kmh WSW 8.1 mph13.0 kmh 29.93 in1013.5 mb - 0.00 in0.0 mm 0.00 in0.0 mm
01:10 PM 72.2°F22.3°C 60.2°F15.7°C 66% 5.8 mph WSW9.3 kmh WSW 8.1 mph13.0 kmh 29.93 in1013.5 mb - 0.00 in0.0 mm 0.00 in0.0 mm
01:20 PM 72.1°F22.3°C 60.1°F15.6°C 66% 8.1 mph WSW13.0 kmh WSW 10.4 mph16.7 kmh 29.93 in1013.5 mb - 0.00 in0.0 mm 0.00 in0.0 mm
01:30 PM 72.2°F22.3°C 60.2°F15.7°C 66% 4.6 mph NW7.4 kmh NW 11.5 mph18.5 kmh 29.92 in1013.2 mb - 0.00 in0.0 mm 0.00 in0.0 mm
01:40 PM 72.3°F22.4°C 59.9°F15.5°C 65% 4.6 mph NW7.4 kmh NW 8.1 mph13.0 kmh 29.92 in1013.2 mb - 0.00 in0.0 mm 0.00 in0.0 mm
01:50 PM 72.4°F22.4°C 59.1°F15.1°C 63% 4.6 mph NW7.4 kmh NW 5.8 mph9.3 kmh 29.92 in1013.2 mb - 0.00 in0.0 mm 0.00 in0.0 mm
02:00 PM 72.4°F22.4°C 60.0°F15.6°C 65% 3.5 mph NW5.6 kmh NW 5.8 mph9.3 kmh 29.92 in1013.2 mb - 0.00 in0.0 mm 0.00 in0.0 mm
02:10 PM 72.4°F22.4°C 60.4°F15.8°C 66% 4.6 mph NNW7.4 kmh NNW 5.8 mph9.3 kmh 29.92 in1013.2 mb - 0.00 in0.0 mm 0.00 in0.0 mm
02:20 PM 72.4°F22.4°C 60.8°F16.0°C 67% 4.6 mph NNW7.4 kmh NNW 8.1 mph13.0 kmh 29.91 in1012.9 mb - 0.00 in0.0 mm 0.00 in0.0 mm
02:30 PM 72.2°F22.3°C 61.0°F16.1°C 68% 4.6 mph NW7.4 kmh NW 6.9 mph11.1 kmh 29.91 in1012.9 mb - 0.00 in0.0 mm 0.00 in0.0 mm
02:40 PM 72.4°F22.4°C 60.8°F16.0°C 67% 4.6 mph N7.4 kmh N 8.1 mph13.0 kmh 29.91 in1012.9 mb - 0.00 in0.0 mm 0.00 in0.0 mm
02:50 PM 72.9°F22.7°C 61.3°F16.3°C 67% 3.5 mph N5.6 kmh N 4.6 mph7.4 kmh 29.91 in1012.9 mb - 0.00 in0.0 mm 0.00 in0.0 mm
03:00 PM 73.4°F23.0°C 61.8°F16.6°C 67% 4.6 mph N7.4 kmh N 6.9 mph11.1 kmh 29.90 in1012.5 mb - 0.00 in0.0 mm 0.00 in0.0 mm
03:10 PM 73.8°F23.2°C 62.2°F16.8°C 67% 3.5 mph NNW5.6 kmh NNW 4.6 mph7.4 kmh 29.90 in1012.5 mb - 0.00 in0.0 mm 0.00 in0.0 mm
03:20 PM 74.4°F23.6°C 62.3°F16.8°C 66% 2.3 mph NNW3.7 kmh NNW 4.6 mph7.4 kmh 29.90 in1012.5 mb - 0.00 in0.0 mm 0.00 in0.0 mm
03:30 PM 74.8°F23.8°C 62.2°F16.8°C 65% 3.5 mph NNW5.6 kmh NNW 5.8 mph9.3 kmh 29.91 in1012.9 mb - 0.00 in0.0 mm 0.00 in0.0 mm
03:40 PM 74.7°F23.7°C 62.6°F17.0°C 66% 4.6 mph NW7.4 kmh NW 5.8 mph9.3 kmh 29.91 in1012.9 mb - 0.00 in0.0 mm 0.00 in0.0 mm
03:50 PM 73.7°F23.2°C 62.9°F17.2°C 69% 2.3 mph W3.7 kmh W 4.6 mph7.4 kmh 29.91 in1012.9 mb - 0.00 in0.0 mm 0.00 in0.0 mm
04:00 PM 73.1°F22.8°C 63.5°F17.5°C 72% 1.2 mph SW1.9 kmh SW 5.8 mph9.3 kmh 29.91 in1012.9 mb - 0.00 in0.0 mm 0.00 in0.0 mm
04:10 PM 72.4°F22.4°C 63.6°F17.6°C 74% Calm Calm 5.8 mph9.3 kmh 29.90 in1012.5 mb - 0.00 in0.0 mm 0.00 in0.0 mm
04:20 PM 71.9°F22.2°C 63.6°F17.6°C 75% 3.5 mph NW5.6 kmh NW 4.6 mph7.4 kmh 29.90 in1012.5 mb - 0.00 in0.0 mm 0.00 in0.0 mm
04:30 PM 71.9°F22.2°C 63.5°F17.5°C 75% 4.6 mph WNW7.4 kmh WNW 5.8 mph9.3 kmh 29.90 in1012.5 mb - 0.00 in0.0 mm 0.00 in0.0 mm
04:40 PM 72.1°F22.3°C 63.7°F17.6°C 75% 4.6 mph NNW7.4 kmh NNW 6.9 mph11.1 kmh 29.90 in1012.5 mb - 0.00 in0.0 mm 0.00 in0.0 mm
04:50 PM 72.6°F22.6°C 63.8°F17.7°C 74% 5.8 mph N9.3 kmh N 10.4 mph16.7 kmh 29.89 in1012.2 mb - 0.00 in0.0 mm 0.00 in0.0 mm
05:00 PM 72.7°F22.6°C 63.9°F17.7°C 74% 4.6 mph NNW7.4 kmh NNW 6.9 mph11.1 kmh 29.89 in1012.2 mb - 0.00 in0.0 mm 0.00 in0.0 mm
05:10 PM 72.6°F22.6°C 64.2°F17.9°C 75% 4.6 mph NNW7.4 kmh NNW 6.9 mph11.1 kmh 29.89 in1012.2 mb - 0.00 in0.0 mm 0.00 in0.0 mm
05:20 PM 72.5°F22.5°C 64.2°F17.9°C 75% 1.2 mph WNW1.9 kmh WNW 3.5 mph5.6 kmh 29.89 in1012.2 mb - 0.00 in0.0 mm 0.00 in0.0 mm
05:30 PM 72.5°F22.5°C 64.1°F17.8°C 75% 2.3 mph NNW3.7 kmh NNW 3.5 mph5.6 kmh 29.90 in1012.5 mb - 0.00 in0.0 mm 0.00 in0.0 mm
05:40 PM 72.6°F22.6°C 64.2°F17.9°C 75% 1.2 mph WNW1.9 kmh WNW 3.5 mph5.6 kmh 29.90 in1012.5 mb - 0.00 in0.0 mm 0.00 in0.0 mm
05:50 PM 72.6°F22.6°C 64.6°F18.1°C 76% Calm Calm -- 29.90 in1012.5 mb - 0.00 in0.0 mm 0.00 in0.0 mm
06:00 PM 72.3°F22.4°C 64.3°F17.9°C 76% 1.2 mph NW1.9 kmh NW 3.5 mph5.6 kmh 29.90 in1012.5 mb - 0.00 in0.0 mm 0.00 in0.0 mm
06:10 PM 72.2°F22.3°C 63.8°F17.7°C 75% 1.2 mph WSW1.9 kmh WSW 4.6 mph7.4 kmh 29.91 in1012.9 mb - 0.00 in0.0 mm 0.00 in0.0 mm
06:20 PM 72.2°F22.3°C 63.8°F17.7°C 75% 1.2 mph NW1.9 kmh NW 2.3 mph3.7 kmh 29.90 in1012.5 mb - 0.00 in0.0 mm 0.00 in0.0 mm
06:30 PM 72.3°F22.4°C 63.5°F17.5°C 74% 1.2 mph WSW1.9 kmh WSW 2.3 mph3.7 kmh 29.91 in1012.9 mb - 0.00 in0.0 mm 0.00 in0.0 mm
06:40 PM 72.4°F22.4°C 64.0°F17.8°C 75% Calm Calm -- 29.90 in1012.5 mb - 0.00 in0.0 mm 0.00 in0.0 mm
06:50 PM 72.5°F22.5°C 64.1°F17.8°C 75% 1.2 mph SW1.9 kmh SW 3.5 mph5.6 kmh 29.91 in1012.9 mb - 0.00 in0.0 mm 0.00 in0.0 mm
07:00 PM 72.5°F22.5°C 64.1°F17.8°C 75% 2.3 mph NW3.7 kmh NW 3.5 mph5.6 kmh 29.90 in1012.5 mb - 0.00 in0.0 mm 0.00 in0.0 mm
07:20 PM 72.1°F22.3°C 63.7°F17.6°C 75% Calm Calm -- 29.90 in1012.5 mb - 0.00 in0.0 mm 0.00 in0.0 mm
07:30 PM 72.0°F22.2°C 64.4°F18.0°C 77% Calm Calm -- 29.90 in1012.5 mb - 0.00 in0.0 mm 0.00 in0.0 mm
07:40 PM 71.8°F22.1°C 64.2°F17.9°C 77% 1.2 mph W1.9 kmh W 2.3 mph3.7 kmh 29.90 in1012.5 mb - 0.00 in0.0 mm 0.00 in0.0 mm
07:50 PM 71.5°F21.9°C 63.9°F17.7°C 77% Calm Calm -- 29.91 in1012.9 mb - 0.00 in0.0 mm 0.00 in0.0 mm
08:00 PM 71.2°F21.8°C 64.0°F17.8°C 78% Calm Calm -- 29.91 in1012.9 mb - 0.00 in0.0 mm 0.00 in0.0 mm
08:10 PM 70.9°F21.6°C 63.7°F17.6°C 78% 1.2 mph W1.9 kmh W 3.5 mph5.6 kmh 29.91 in1012.9 mb - 0.00 in0.0 mm 0.00 in0.0 mm
08:20 PM 70.4°F21.3°C 63.6°F17.6°C 79% 1.2 mph NW1.9 kmh NW 3.5 mph5.6 kmh 29.91 in1012.9 mb - 0.00 in0.0 mm 0.00 in0.0 mm
08:30 PM 70.1°F21.2°C 63.3°F17.4°C 79% Calm Calm -- 29.92 in1013.2 mb - 0.00 in0.0 mm 0.00 in0.0 mm
08:40 PM 69.7°F20.9°C 63.3°F17.4°C 80% Calm Calm -- 29.92 in1013.2 mb - 0.00 in0.0 mm 0.00 in0.0 mm
08:50 PM 69.3°F20.7°C 63.2°F17.3°C 81% Calm Calm -- 29.92 in1013.2 mb - 0.00 in0.0 mm 0.00 in0.0 mm
09:00 PM 69.0°F20.6°C 63.3°F17.4°C 82% Calm Calm -- 29.93 in1013.5 mb - 0.00 in0.0 mm 0.00 in0.0 mm
09:10 PM 68.7°F20.4°C 63.0°F17.2°C 82% Calm Calm -- 29.92 in1013.2 mb - 0.00 in0.0 mm 0.00 in0.0 mm
09:20 PM 68.4°F20.2°C 63.0°F17.2°C 83% Calm Calm -- 29.93 in1013.5 mb - 0.00 in0.0 mm 0.00 in0.0 mm
09:30 PM 68.1°F20.1°C 62.7°F17.1°C 83% Calm Calm -- 29.93 in1013.5 mb - 0.00 in0.0 mm 0.00 in0.0 mm
09:40 PM 67.7°F19.8°C 62.7°F17.1°C 84% Calm Calm -- 29.93 in1013.5 mb - 0.00 in0.0 mm 0.00 in0.0 mm
09:50 PM 67.4°F19.7°C 62.7°F17.1°C 85% Calm Calm -- 29.93 in1013.5 mb - 0.00 in0.0 mm 0.00 in0.0 mm
10:00 PM 67.1°F19.5°C 62.4°F16.9°C 85% Calm Calm -- 29.93 in1013.5 mb - 0.00 in0.0 mm 0.00 in0.0 mm
10:10 PM 66.8°F19.3°C 62.5°F16.9°C 86% Calm Calm -- 29.93 in1013.5 mb - 0.00 in0.0 mm 0.00 in0.0 mm
10:20 PM 66.5°F19.2°C 62.2°F16.8°C 86% Calm Calm -- 29.93 in1013.5 mb - 0.00 in0.0 mm 0.00 in0.0 mm
10:30 PM 66.3°F19.1°C 62.3°F16.8°C 87% Calm Calm -- 29.93 in1013.5 mb - 0.00 in0.0 mm 0.00 in0.0 mm
10:40 PM 66.1°F18.9°C 62.1°F16.7°C 87% Calm Calm 2.3 mph3.7 kmh 29.93 in1013.5 mb - 0.00 in0.0 mm 0.00 in0.0 mm
10:50 PM 65.9°F18.8°C 62.2°F16.8°C 88% Calm Calm -- 29.93 in1013.5 mb - 0.00 in0.0 mm 0.00 in0.0 mm
11:00 PM 65.7°F18.7°C 62.0°F16.7°C 88% Calm Calm -- 29.92 in1013.2 mb - 0.00 in0.0 mm 0.00 in0.0 mm
11:10 PM 65.5°F18.6°C 61.9°F16.6°C 88% Calm Calm -- 29.92 in1013.2 mb - 0.00 in0.0 mm 0.00 in0.0 mm
11:20 PM 65.3°F18.5°C 61.9°F16.6°C 89% Calm Calm -- 29.93 in1013.5 mb - 0.00 in0.0 mm 0.00 in0.0 mm
11:30 PM 65.1°F18.4°C 61.8°F16.6°C 89% Calm Calm -- 29.93 in1013.5 mb - 0.00 in0.0 mm 0.00 in0.0 mm
11:40 PM 64.8°F18.2°C 61.5°F16.4°C 89% Calm Calm -- 29.92 in1013.2 mb - 0.00 in0.0 mm 0.00 in0.0 mm
11:50 PM 64.5°F18.1°C 61.2°F16.2°C 89% Calm Calm -- 29.92 in1013.2 mb - 0.00 in0.0 mm 0.00 in0.0 mm